Newmansville, Illinois
Current Conditions -  °F | °C
As of 2:35 AM on Saturday 29 Nov 2014 (Local Time) from KIJX Reporting Station
Clear Clear  
Wind Chill: 35°   Ceiling: Unl
Heat Index: 41°   Visibility: 10mi
Dew Point: 35°   Wind: 12mph
Humidity: 78%   Direction: 170°S
Pressure: 29.78"   Gusts: 18mph
Location:  39.9123°N, 90.0575°W
Report Text: KIJX 290835Z AUTO 17010G16KT 10SM CLR 05/02 A2978 RMK AO2 T00510015
Loading
Personal Weather Stations






























Interactive Weather Map New forecast layout! Learn more

10-Day Weather Forecast

Advertisements
Track Severe Weather on mobile